Elba, AL (36323)

2:58 AM CST on December 05, 2016 (GMT -0600)
Indian Hills | | Change Station

Elev 331 ft 31.43 °N, 86.08 °W | Updated 24 seconds ago

Overcast
Overcast
59.7 °F
Feels Like 59.7 °F
N
0.0
Wind Variable Wind from WSW
Gusts 0.0 mph

Today
High -- | Low -- °F
--% Chance of Precip.
Yesterday
High -- | Low -- °F
Precip. -- in
Pressure 29.89 in
Visibility 3.0 miles
Clouds Overcast 200 ft
Dew Point 59 °F
Humidity 96%
Rainfall 0.00 in
Snow Depth Not available.
6:29 AM 4:41 PM
Waxing Crescent, 30% visible
METAR KLOR 050853Z AUTO 03005KT 3SM BR OVC002 16/15 A2990 RMK AO2 RAE0757 SLP121 P0007 60023 T01610150 58022 $
Pressure 29.89 in
Visibility 3.0 miles
Clouds Overcast 200 ft
Dew Point 59 °F
Humidity 96%
Rainfall 0.00 in
Snow Depth Not available.
6:29 AM 4:41 PM
Waxing Crescent, 30% visible
METAR KLOR 050853Z AUTO 03005KT 3SM BR OVC002 16/15 A2990 RMK AO2 RAE0757 SLP121 P0007 60023 T01610150 58022 $

10-Day Weather Forecast

Almanac

Astronomy

Dec. 05, 2016 Rise Set
Actual Time
Civil Twilight
Nautical Twilight
Astronomical Twilight
Moon
Length of Visible Light
Length of Day
Tomorrow will be .
, % of the Moon is Illuminated

Today's Extremes

State Highs State Lows

Community

WunderPhotos

Upload Photos

1,955,771 photos uploaded!

WunderBlog® & News

Nearby

Air Quality

  Air Quality AQ Index Pollutant
Not available.

Snow Depth

Station Depth Elevation

Earthquake Activity

City Distance Mag. Time & Date
Minimum magnitude displayed is 2.5.

Coastal Water Temperatures

Place Temperature

Stations

Nearby Weather Stations

Station Location Temp. Windchill Dew Point Humidity Wind Precip. Elev Updated Type
                   

Watches & Warnings

There are currently no watches in effect.